createdAt,value
2023-03-16T00:00:42.294Z,12.26
2023-03-16T00:01:44.139Z,12.25
2023-03-16T00:02:45.982Z,12.23
2023-03-16T00:03:47.831Z,12.23
2023-03-16T00:04:49.709Z,12.22
2023-03-16T00:05:51.525Z,12.22
2023-03-16T00:06:53.442Z,12.21
2023-03-16T00:07:55.241Z,12.21
2023-03-16T00:08:57.046Z,12.23
2023-03-16T00:09:58.902Z,12.23
2023-03-16T00:11:00.725Z,12.22
2023-03-16T00:12:02.555Z,12.21
2023-03-16T00:13:04.355Z,12.21
2023-03-16T00:14:06.158Z,12.21
2023-03-16T00:15:08.053Z,12.21
2023-03-16T00:16:10.225Z,12.22
2023-03-16T00:17:12.064Z,12.20
2023-03-16T00:18:13.881Z,12.20
2023-03-16T00:19:15.698Z,12.19
2023-03-16T00:20:17.541Z,12.17
2023-03-16T00:21:19.354Z,12.17
2023-03-16T00:22:21.163Z,12.15
2023-03-16T00:23:22.982Z,12.12
2023-03-16T00:24:24.790Z,12.12
2023-03-16T00:25:26.643Z,12.12
2023-03-16T00:26:28.656Z,12.11
2023-03-16T00:27:30.486Z,12.04
2023-03-16T00:28:32.298Z,12.09
2023-03-16T00:29:34.104Z,12.10
2023-03-16T00:30:36.067Z,12.10
2023-03-16T00:31:37.871Z,12.09
2023-03-16T00:32:39.733Z,12.08
2023-03-16T00:33:41.501Z,12.07
2023-03-16T00:34:43.302Z,12.07
2023-03-16T00:35:45.188Z,12.07
2023-03-16T00:36:46.978Z,12.04
2023-03-16T00:37:48.858Z,12.05
2023-03-16T00:38:50.707Z,12.05
2023-03-16T00:39:52.520Z,12.03
2023-03-16T00:40:54.384Z,12.04
2023-03-16T00:41:56.196Z,12.03
2023-03-16T00:42:58.034Z,12.03
2023-03-16T00:43:59.852Z,12.03
2023-03-16T00:45:01.696Z,12.03
2023-03-16T00:46:03.536Z,12.02
2023-03-16T00:47:05.334Z,12.01
2023-03-16T00:48:07.135Z,12.01
2023-03-16T00:49:08.937Z,12.00
2023-03-16T00:50:10.746Z,11.98
2023-03-16T00:51:12.609Z,11.98
2023-03-16T00:52:14.408Z,11.98
2023-03-16T00:53:16.222Z,11.97
2023-03-16T00:54:18.051Z,11.98
2023-03-16T00:55:19.858Z,11.97
2023-03-16T00:56:21.723Z,11.94
2023-03-16T00:57:23.530Z,11.94
2023-03-16T00:58:25.363Z,11.94
2023-03-16T00:59:27.174Z,11.93
2023-03-16T01:00:29.441Z,11.93
2023-03-16T01:01:31.512Z,11.92
2023-03-16T01:02:33.308Z,11.93
2023-03-16T01:03:35.139Z,11.92
2023-03-16T01:04:36.918Z,11.92
2023-03-16T01:05:38.724Z,11.93
2023-03-16T01:06:40.589Z,11.92
2023-03-16T01:07:42.402Z,11.92
2023-03-16T01:08:44.218Z,11.92
2023-03-16T01:09:46.028Z,11.89
2023-03-16T01:10:47.854Z,11.87
2023-03-16T01:11:49.725Z,11.86
2023-03-16T01:12:51.550Z,11.86
2023-03-16T01:13:53.350Z,11.85
2023-03-16T01:14:55.152Z,11.84
2023-03-16T01:15:56.966Z,11.82
2023-03-16T01:16:58.889Z,11.85
2023-03-16T01:18:00.730Z,11.84
2023-03-16T01:19:02.527Z,11.84
2023-03-16T01:20:04.353Z,11.82
2023-03-16T01:21:06.228Z,11.82
2023-03-16T01:22:08.075Z,11.82
2023-03-16T01:23:09.869Z,11.81
2023-03-16T01:24:11.687Z,11.81
2023-03-16T01:25:13.414Z,11.81
2023-03-16T01:26:15.306Z,11.80
2023-03-16T01:27:17.142Z,11.79
2023-03-16T01:28:18.948Z,11.79
2023-03-16T01:29:20.745Z,11.79
2023-03-16T01:30:22.664Z,11.79
2023-03-16T01:31:24.497Z,11.77
2023-03-16T01:32:26.331Z,11.78
2023-03-16T01:33:28.234Z,11.78
2023-03-16T01:34:30.017Z,11.78
2023-03-16T01:35:31.863Z,11.77
2023-03-16T01:36:33.606Z,11.76
2023-03-16T01:37:35.468Z,11.75
2023-03-16T01:38:37.301Z,11.76
2023-03-16T01:39:39.097Z,11.77
2023-03-16T01:40:40.901Z,11.77
2023-03-16T01:41:42.701Z,11.76
2023-03-16T01:42:44.565Z,11.76
2023-03-16T01:43:46.380Z,11.76
2023-03-16T01:44:48.173Z,11.75
2023-03-16T01:45:50.004Z,11.75
2023-03-16T01:46:51.788Z,11.76
2023-03-16T01:47:53.649Z,11.77
2023-03-16T01:48:55.455Z,11.77
2023-03-16T01:49:57.269Z,11.78
2023-03-16T01:50:59.080Z,11.78
2023-03-16T01:52:00.919Z,11.79
2023-03-16T01:53:02.790Z,11.79
2023-03-16T01:54:04.580Z,11.79
2023-03-16T01:55:06.377Z,11.80
2023-03-16T01:56:08.316Z,11.79
2023-03-16T01:57:10.108Z,11.81
2023-03-16T01:58:11.957Z,11.82
2023-03-16T01:59:13.852Z,11.83
2023-03-16T02:00:16.020Z,11.85
2023-03-16T02:01:17.850Z,11.85
2023-03-16T02:02:19.629Z,11.86
2023-03-16T02:03:21.484Z,11.84
2023-03-16T02:04:23.383Z,11.85
2023-03-16T02:05:25.202Z,11.83
2023-03-16T02:06:27.110Z,11.82
2023-03-16T02:07:28.945Z,11.83
2023-03-16T02:08:30.832Z,11.81
2023-03-16T02:09:32.604Z,11.77
2023-03-16T02:10:34.397Z,11.76
2023-03-16T02:11:36.214Z,11.75
2023-03-16T02:12:38.029Z,11.73
2023-03-16T02:13:39.895Z,11.70
2023-03-16T02:14:41.691Z,11.69
2023-03-16T02:15:43.550Z,11.69
2023-03-16T02:16:45.408Z,11.69
2023-03-16T02:17:47.226Z,11.71
2023-03-16T02:18:49.067Z,11.71
2023-03-16T02:19:50.866Z,11.72
2023-03-16T02:20:52.692Z,11.70
2023-03-16T02:21:54.506Z,11.71
2023-03-16T02:22:56.285Z,11.70
2023-03-16T02:23:58.138Z,11.69
2023-03-16T02:24:59.939Z,11.68
2023-03-16T02:26:01.760Z,11.66
2023-03-16T02:27:03.643Z,11.66
2023-03-16T02:28:05.443Z,11.67
2023-03-16T02:29:07.309Z,11.66
2023-03-16T02:30:09.107Z,11.67
2023-03-16T02:31:10.928Z,11.67
2023-03-16T02:32:12.706Z,11.69
2023-03-16T02:33:14.498Z,11.69
2023-03-16T02:34:16.347Z,11.71
2023-03-16T02:35:18.170Z,11.71
2023-03-16T02:36:19.966Z,11.71
2023-03-16T02:37:21.768Z,11.73
2023-03-16T02:38:23.575Z,11.74
2023-03-16T02:39:25.438Z,11.73
2023-03-16T02:40:27.619Z,11.73
2023-03-16T02:41:29.601Z,11.72
2023-03-16T02:42:31.427Z,11.74
2023-03-16T02:43:33.236Z,11.72
2023-03-16T02:44:35.089Z,11.77
2023-03-16T02:45:36.899Z,11.79
2023-03-16T02:46:38.737Z,11.79
2023-03-16T02:47:40.603Z,11.82
2023-03-16T02:48:42.401Z,11.82
2023-03-16T02:49:44.250Z,11.84
2023-03-16T02:50:46.053Z,11.85
2023-03-16T02:51:47.853Z,11.86
2023-03-16T02:52:49.668Z,11.86
2023-03-16T02:53:51.463Z,11.87
2023-03-16T02:54:53.322Z,11.87
2023-03-16T02:55:55.133Z,11.88
2023-03-16T02:56:57.053Z,11.88
2023-03-16T02:57:58.840Z,11.87
2023-03-16T02:59:00.658Z,11.89
2023-03-16T03:00:02.527Z,11.88
2023-03-16T03:01:04.338Z,11.88
2023-03-16T03:02:06.121Z,11.86
2023-03-16T03:03:07.957Z,11.88
2023-03-16T03:04:09.736Z,11.87
2023-03-16T03:05:11.596Z,11.86
2023-03-16T03:06:13.532Z,11.88
2023-03-16T03:07:15.338Z,11.89
2023-03-16T03:08:17.148Z,11.91
2023-03-16T03:09:18.952Z,11.91
2023-03-16T03:10:21.095Z,11.91
2023-03-16T03:11:22.896Z,11.90
2023-03-16T03:12:24.715Z,11.88
2023-03-16T03:13:26.516Z,11.86
2023-03-16T03:14:28.324Z,11.86
2023-03-16T03:15:30.172Z,11.84
2023-03-16T03:16:32.104Z,11.83
2023-03-16T03:17:33.865Z,11.84
2023-03-16T03:18:35.668Z,11.83
2023-03-16T03:19:37.473Z,11.82
2023-03-16T03:20:39.351Z,11.81
2023-03-16T03:21:41.158Z,11.79
2023-03-16T03:22:42.960Z,11.79
2023-03-16T03:23:44.770Z,11.77
2023-03-16T03:24:46.577Z,11.77
2023-03-16T03:25:48.437Z,11.75
2023-03-16T03:26:50.247Z,11.76
2023-03-16T03:27:52.093Z,11.73
2023-03-16T03:28:53.865Z,11.73
2023-03-16T03:29:55.682Z,11.71
2023-03-16T03:30:57.546Z,11.71
2023-03-16T03:31:59.439Z,11.70
2023-03-16T03:33:01.274Z,11.70
2023-03-16T03:34:03.078Z,11.72
2023-03-16T03:35:04.892Z,11.72
2023-03-16T03:36:07.086Z,11.70
2023-03-16T03:37:08.860Z,11.70
2023-03-16T03:38:10.677Z,11.69
2023-03-16T03:39:12.481Z,11.68
2023-03-16T03:40:14.403Z,11.68
2023-03-16T03:41:16.211Z,11.68
2023-03-16T03:42:18.038Z,11.67
2023-03-16T03:43:19.836Z,11.67
2023-03-16T03:44:21.639Z,11.67
2023-03-16T03:45:23.468Z,11.68
2023-03-16T03:46:25.386Z,11.68
2023-03-16T03:47:27.233Z,11.70
2023-03-16T03:48:29.033Z,11.72
2023-03-16T03:49:30.836Z,11.73
2023-03-16T03:50:32.672Z,11.73
2023-03-16T03:51:34.539Z,11.73
2023-03-16T03:52:36.341Z,11.76
2023-03-16T03:53:38.152Z,11.75
2023-03-16T03:54:39.950Z,11.77
2023-03-16T03:55:41.779Z,11.75
2023-03-16T03:56:43.644Z,11.75
2023-03-16T03:57:45.450Z,11.76
2023-03-16T03:58:47.250Z,11.76
2023-03-16T03:59:49.094Z,11.78
2023-03-16T04:00:50.922Z,11.76
2023-03-16T04:01:52.864Z,11.76
2023-03-16T04:02:54.806Z,11.74
2023-03-16T04:03:56.596Z,11.73
2023-03-16T04:04:58.404Z,11.75
2023-03-16T04:06:00.206Z,11.76
2023-03-16T04:07:01.947Z,11.77
2023-03-16T04:08:03.763Z,11.77
2023-03-16T04:09:05.584Z,11.77
2023-03-16T04:10:07.678Z,11.75
2023-03-16T04:11:09.478Z,11.74
2023-03-16T04:12:11.349Z,11.74
2023-03-16T04:13:13.166Z,11.74
2023-03-16T04:14:14.981Z,11.75
2023-03-16T04:15:16.676Z,11.77
2023-03-16T04:16:18.627Z,11.75
2023-03-16T04:17:20.451Z,11.76
2023-03-16T04:18:22.261Z,11.77
2023-03-16T04:19:23.960Z,11.78
2023-03-16T04:20:26.174Z,11.78
2023-03-16T04:21:28.087Z,11.77
2023-03-16T04:22:29.955Z,11.76
2023-03-16T04:23:31.784Z,11.75
2023-03-16T04:24:33.572Z,11.75
2023-03-16T04:25:35.275Z,11.74
2023-03-16T04:26:37.103Z,11.77
2023-03-16T04:27:38.941Z,11.77
2023-03-16T04:28:40.760Z,11.77
2023-03-16T04:29:42.567Z,11.76
2023-03-16T04:30:44.440Z,11.76
2023-03-16T04:31:46.261Z,11.76
2023-03-16T04:32:48.171Z,11.75
2023-03-16T04:33:49.960Z,11.74
2023-03-16T04:34:51.759Z,11.74
2023-03-16T04:35:53.620Z,11.75
2023-03-16T04:36:55.578Z,11.75
2023-03-16T04:37:57.469Z,11.76
2023-03-16T04:38:59.334Z,11.73
2023-03-16T04:40:01.140Z,11.72
2023-03-16T04:41:02.952Z,11.70
2023-03-16T04:42:04.794Z,11.69
2023-03-16T04:43:06.721Z,11.70
2023-03-16T04:44:08.532Z,11.70
2023-03-16T04:45:10.445Z,11.70
2023-03-16T04:46:12.383Z,11.70
2023-03-16T04:47:14.200Z,11.72
2023-03-16T04:48:16.099Z,11.73
2023-03-16T04:49:17.911Z,11.75
2023-03-16T04:50:19.739Z,11.75
2023-03-16T04:51:21.615Z,11.77
2023-03-16T04:52:23.716Z,11.79
2023-03-16T04:53:25.618Z,11.80
2023-03-16T04:54:27.441Z,11.82
2023-03-16T04:55:29.457Z,11.83
2023-03-16T04:56:31.385Z,11.83
2023-03-16T04:57:33.180Z,11.86
2023-03-16T04:58:35.041Z,11.86
2023-03-16T04:59:36.836Z,11.87
2023-03-16T05:00:38.952Z,11.88
2023-03-16T05:01:40.805Z,11.93
2023-03-16T05:02:42.703Z,11.94
2023-03-16T05:03:44.581Z,11.94
2023-03-16T05:04:46.334Z,11.95
2023-03-16T05:05:48.172Z,11.95
2023-03-16T05:06:49.961Z,11.97
2023-03-16T05:07:51.811Z,11.98
2023-03-16T05:08:53.665Z,12.00
2023-03-16T05:09:55.461Z,11.99
2023-03-16T05:10:57.288Z,11.99
2023-03-16T05:11:59.106Z,12.01
2023-03-16T05:13:00.974Z,12.01
2023-03-16T05:14:02.790Z,11.99
2023-03-16T05:15:04.586Z,12.01
2023-03-16T05:16:06.734Z,12.02
2023-03-16T05:17:08.507Z,12.03
2023-03-16T05:18:10.367Z,12.08
2023-03-16T05:19:12.228Z,12.09
2023-03-16T05:20:16.174Z,12.11
2023-03-16T05:21:18.311Z,12.12
2023-03-16T05:22:20.126Z,12.14
2023-03-16T05:23:21.931Z,12.14
2023-03-16T05:24:23.790Z,12.15
2023-03-16T05:25:25.597Z,12.15
2023-03-16T05:26:27.400Z,12.16
2023-03-16T05:27:29.216Z,12.15
2023-03-16T05:28:30.917Z,12.16
2023-03-16T05:29:32.774Z,12.16
2023-03-16T05:30:34.594Z,12.17
2023-03-16T05:31:36.496Z,12.17
2023-03-16T05:32:38.317Z,12.20
2023-03-16T05:33:40.035Z,12.24
2023-03-16T05:34:41.887Z,12.27
2023-03-16T05:35:43.740Z,12.30
2023-03-16T05:36:45.616Z,12.31
2023-03-16T05:37:47.421Z,12.33
2023-03-16T05:38:49.231Z,12.36
2023-03-16T05:39:51.097Z,12.37
2023-03-16T05:40:52.978Z,12.39
2023-03-16T05:41:54.815Z,12.42
2023-03-16T05:42:56.620Z,12.45
2023-03-16T05:43:58.439Z,12.45
2023-03-16T05:45:00.304Z,12.47
2023-03-16T05:46:02.097Z,12.49
2023-03-16T05:47:04.007Z,12.50
2023-03-16T05:48:05.831Z,12.51
2023-03-16T05:49:07.625Z,12.52
2023-03-16T05:50:09.773Z,12.54
2023-03-16T05:51:11.585Z,12.56
2023-03-16T05:52:13.521Z,12.56
2023-03-16T05:53:15.338Z,12.57
2023-03-16T05:54:17.132Z,12.60
2023-03-16T05:55:19.010Z,12.61
2023-03-16T05:56:20.820Z,12.62
2023-03-16T05:57:22.614Z,12.63
2023-03-16T05:58:24.425Z,12.63
2023-03-16T05:59:26.217Z,12.65
2023-03-16T06:00:28.288Z,12.65
2023-03-16T06:01:30.224Z,12.66
2023-03-16T06:02:32.100Z,12.64
2023-03-16T06:03:33.941Z,12.66
2023-03-16T06:04:35.735Z,12.66
2023-03-16T06:05:37.488Z,12.67
2023-03-16T06:06:39.283Z,12.66
2023-03-16T06:07:41.101Z,12.67
2023-03-16T06:08:42.950Z,12.67
2023-03-16T06:09:44.748Z,12.66
2023-03-16T06:10:46.695Z,12.67
2023-03-16T06:11:48.513Z,12.67
2023-03-16T06:12:50.340Z,12.67
2023-03-16T06:13:52.132Z,12.68
2023-03-16T06:14:53.938Z,12.68
2023-03-16T06:15:55.852Z,12.67
2023-03-16T06:16:57.804Z,12.68
2023-03-16T06:17:59.607Z,12.67
2023-03-16T06:19:01.423Z,12.67
2023-03-16T06:20:03.219Z,12.67
2023-03-16T06:21:05.090Z,12.67
2023-03-16T06:22:06.963Z,12.67
2023-03-16T06:23:08.809Z,12.67
2023-03-16T06:24:10.632Z,12.66
2023-03-16T06:25:12.455Z,12.68
2023-03-16T06:26:14.778Z,12.67
2023-03-16T06:27:16.628Z,12.69
2023-03-16T06:28:18.413Z,12.68
2023-03-16T06:29:20.227Z,12.69
2023-03-16T06:30:22.326Z,12.68
2023-03-16T06:31:24.283Z,12.69
2023-03-16T06:32:26.356Z,12.71
2023-03-16T06:33:28.158Z,12.73
2023-03-16T06:34:29.969Z,12.74
2023-03-16T06:35:31.890Z,12.76
2023-03-16T06:36:33.746Z,12.80
2023-03-16T06:37:35.547Z,12.80
2023-03-16T06:38:37.371Z,12.81
2023-03-16T06:39:39.184Z,12.83
2023-03-16T06:40:40.984Z,12.84
2023-03-16T06:41:42.864Z,12.87
2023-03-16T06:42:47.003Z,12.88
2023-03-16T06:43:48.388Z,12.89
2023-03-16T06:44:50.184Z,12.89
2023-03-16T06:45:52.079Z,12.90
2023-03-16T06:46:53.979Z,12.91
2023-03-16T06:47:55.794Z,12.94
2023-03-16T06:48:57.587Z,12.96
2023-03-16T06:49:59.403Z,12.97
2023-03-16T06:51:01.185Z,12.98
2023-03-16T06:52:03.057Z,12.98
2023-03-16T06:53:04.875Z,12.98
2023-03-16T06:54:06.672Z,12.99
2023-03-16T06:55:08.486Z,13.00
2023-03-16T06:56:10.292Z,13.00
2023-03-16T06:57:12.174Z,13.01
2023-03-16T06:58:13.999Z,13.02
2023-03-16T06:59:15.802Z,13.05
2023-03-16T07:00:17.942Z,13.06
2023-03-16T07:01:21.365Z,13.07
2023-03-16T07:02:23.218Z,13.06
2023-03-16T07:03:25.030Z,13.08
2023-03-16T07:04:26.903Z,13.07
2023-03-16T07:05:28.792Z,13.09
2023-03-16T07:06:30.620Z,13.10
2023-03-16T07:07:32.466Z,13.11
2023-03-16T07:08:34.279Z,13.11
2023-03-16T07:09:39.161Z,13.11
2023-03-16T07:10:39.810Z,13.14
2023-03-16T07:11:41.641Z,13.15
2023-03-16T07:12:43.480Z,13.15
2023-03-16T07:13:45.294Z,13.17
2023-03-16T07:14:50.724Z,13.18
2023-03-16T07:15:50.770Z,13.18
2023-03-16T07:16:52.718Z,13.19
2023-03-16T07:17:54.576Z,13.19
2023-03-16T07:18:58.685Z,13.19
2023-03-16T07:20:00.537Z,13.19
2023-03-16T07:21:02.329Z,13.21
2023-03-16T07:22:04.147Z,13.22
2023-03-16T07:23:06.062Z,13.23
2023-03-16T07:24:07.866Z,13.21
2023-03-16T07:25:09.675Z,13.22
2023-03-16T07:26:11.703Z,13.21
2023-03-16T07:27:13.611Z,13.18
2023-03-16T07:28:15.463Z,13.18
2023-03-16T07:29:17.289Z,13.18
2023-03-16T07:30:19.084Z,13.18
2023-03-16T07:31:20.864Z,13.19
2023-03-16T07:32:22.696Z,13.22
2023-03-16T07:33:24.555Z,13.23
2023-03-16T07:34:26.398Z,13.21
2023-03-16T07:35:28.198Z,13.19
2023-03-16T07:36:30.110Z,13.17
2023-03-16T07:37:31.929Z,13.14
2023-03-16T07:38:33.796Z,13.15
2023-03-16T07:39:35.493Z,13.16
2023-03-16T07:40:37.357Z,13.18
2023-03-16T07:41:39.156Z,13.20
2023-03-16T07:42:40.959Z,13.21
2023-03-16T07:43:42.819Z,13.22
2023-03-16T07:44:44.975Z,13.23
2023-03-16T07:45:46.808Z,13.23
2023-03-16T07:46:48.566Z,13.25
2023-03-16T07:47:50.384Z,13.27
2023-03-16T07:48:52.223Z,13.27
2023-03-16T07:49:54.038Z,13.29
2023-03-16T07:50:55.856Z,13.29
2023-03-16T07:51:58.724Z,13.31
2023-03-16T07:53:00.516Z,13.33
2023-03-16T07:54:02.374Z,13.33
2023-03-16T07:55:04.205Z,13.35
2023-03-16T07:56:06.128Z,13.36
2023-03-16T07:57:07.992Z,13.37
2023-03-16T07:58:09.809Z,13.39
2023-03-16T07:59:11.673Z,13.37
2023-03-16T08:00:13.928Z,13.36
2023-03-16T08:01:15.745Z,13.36
2023-03-16T08:02:17.560Z,13.37
2023-03-16T08:03:19.483Z,13.38
2023-03-16T08:04:21.312Z,13.38
2023-03-16T08:05:23.116Z,13.36
2023-03-16T08:06:24.940Z,13.35
2023-03-16T08:07:26.790Z,13.35
2023-03-16T08:08:28.564Z,13.34
2023-03-16T08:09:30.433Z,13.33
2023-03-16T08:10:32.712Z,13.33
2023-03-16T08:11:34.774Z,13.33
2023-03-16T08:12:36.612Z,13.33
2023-03-16T08:13:38.474Z,13.33
2023-03-16T08:14:40.325Z,13.34
2023-03-16T08:15:42.162Z,13.34
2023-03-16T08:16:43.962Z,13.33
2023-03-16T08:17:45.789Z,13.35
2023-03-16T08:18:47.591Z,13.34
2023-03-16T08:19:49.453Z,13.35
2023-03-16T08:20:51.251Z,13.34
2023-03-16T08:22:01.113Z,13.36
2023-03-16T08:22:56.697Z,13.38
2023-03-16T08:23:58.513Z,13.39
2023-03-16T08:25:00.382Z,13.41
2023-03-16T08:26:02.184Z,13.41
2023-03-16T08:27:04.109Z,13.43
2023-03-16T08:28:05.910Z,13.44
2023-03-16T08:29:07.676Z,13.45
2023-03-16T08:30:09.685Z,13.45
2023-03-16T08:31:11.548Z,13.45
2023-03-16T08:32:13.324Z,13.46
2023-03-16T08:33:15.126Z,13.47
2023-03-16T08:34:16.946Z,13.48
2023-03-16T08:35:18.828Z,13.49
2023-03-16T08:36:20.657Z,13.52
2023-03-16T08:37:22.457Z,13.53
2023-03-16T08:38:24.265Z,13.54
2023-03-16T08:39:26.073Z,13.54
2023-03-16T08:40:28.337Z,13.56
2023-03-16T08:41:30.410Z,13.57
2023-03-16T08:42:32.245Z,13.59
2023-03-16T08:43:34.040Z,13.60
2023-03-16T08:44:35.864Z,13.63
2023-03-16T08:45:37.732Z,13.64
2023-03-16T08:46:39.693Z,13.65
2023-03-16T08:47:41.463Z,13.67
2023-03-16T08:48:43.251Z,13.68
2023-03-16T08:49:45.093Z,13.70
2023-03-16T08:50:47.162Z,13.69
2023-03-16T08:51:49.038Z,13.70
2023-03-16T08:52:50.874Z,13.72
2023-03-16T08:53:53.096Z,13.72
2023-03-16T08:55:03.013Z,13.72
2023-03-16T08:55:58.566Z,13.73
2023-03-16T08:57:00.434Z,13.74
2023-03-16T08:58:02.315Z,13.74
2023-03-16T08:59:04.052Z,13.76
2023-03-16T09:00:06.068Z,13.78
2023-03-16T09:01:07.957Z,13.78
2023-03-16T09:02:09.818Z,13.80
2023-03-16T09:03:11.572Z,13.83
2023-03-16T09:04:13.522Z,13.83
2023-03-16T09:05:15.455Z,13.86
2023-03-16T09:06:17.382Z,13.87
2023-03-16T09:07:19.189Z,13.88
2023-03-16T09:08:21.015Z,13.89
2023-03-16T09:09:22.840Z,13.90
2023-03-16T09:10:24.779Z,13.92
2023-03-16T09:11:26.616Z,13.91
2023-03-16T09:12:28.430Z,13.93
2023-03-16T09:13:30.289Z,13.95
2023-03-16T09:14:32.233Z,13.95
2023-03-16T09:15:34.016Z,13.97
2023-03-16T09:16:35.959Z,13.97
2023-03-16T09:17:37.834Z,13.98
2023-03-16T09:18:39.640Z,14.00
2023-03-16T09:19:51.190Z,14.01
2023-03-16T09:20:45.106Z,14.02
2023-03-16T09:21:47.483Z,14.04
2023-03-16T09:22:49.311Z,14.05
2023-03-16T09:23:51.141Z,14.08
2023-03-16T09:24:52.982Z,14.10
2023-03-16T09:25:54.799Z,14.12
2023-03-16T09:26:56.815Z,14.14
2023-03-16T09:27:58.713Z,14.16
2023-03-16T09:29:00.511Z,14.18
2023-03-16T09:30:02.387Z,14.21
2023-03-16T09:31:04.408Z,14.22
2023-03-16T09:32:06.259Z,14.26
2023-03-16T09:33:08.313Z,14.26
2023-03-16T09:34:10.221Z,14.28
2023-03-16T09:35:12.072Z,14.29
2023-03-16T09:36:14.015Z,14.31
2023-03-16T09:37:15.857Z,14.32
2023-03-16T09:38:17.684Z,14.34
2023-03-16T09:39:19.471Z,14.35
2023-03-16T09:40:21.284Z,14.37
2023-03-16T09:41:23.093Z,14.39
2023-03-16T09:42:26.757Z,14.41
2023-03-16T09:43:28.571Z,14.41
2023-03-16T09:44:30.444Z,14.43
2023-03-16T09:45:32.690Z,14.44
2023-03-16T09:46:35.832Z,14.45
2023-03-16T09:47:38.038Z,14.46
2023-03-16T09:48:39.867Z,14.49
2023-03-16T09:49:41.660Z,14.49
2023-03-16T09:50:48.899Z,14.50
2023-03-16T09:51:47.123Z,14.52
2023-03-16T09:52:48.968Z,14.52
2023-03-16T09:53:50.802Z,14.54
2023-03-16T09:54:52.600Z,14.55
2023-03-16T09:55:54.312Z,14.56
2023-03-16T09:56:56.229Z,14.57
2023-03-16T09:57:58.091Z,14.57
2023-03-16T09:58:59.949Z,14.59
2023-03-16T10:00:01.768Z,14.58
2023-03-16T10:01:03.674Z,14.60
2023-03-16T10:02:05.475Z,14.60
2023-03-16T10:03:07.353Z,14.58
2023-03-16T10:04:09.199Z,14.60
2023-03-16T10:05:10.963Z,14.61
2023-03-16T10:06:12.892Z,14.62
2023-03-16T10:07:14.785Z,14.64
2023-03-16T10:08:16.632Z,14.64
2023-03-16T10:09:18.426Z,14.66
2023-03-16T10:10:20.271Z,14.66
2023-03-16T10:11:22.133Z,14.67
2023-03-16T10:12:23.917Z,14.66
2023-03-16T10:13:25.773Z,14.67
2023-03-16T10:14:27.573Z,14.67
2023-03-16T10:15:29.390Z,14.67
2023-03-16T10:16:31.203Z,14.67
2023-03-16T10:17:33.109Z,14.67
2023-03-16T10:18:34.982Z,14.66
2023-03-16T10:19:36.820Z,14.67
2023-03-16T10:20:38.600Z,14.67
2023-03-16T10:21:40.406Z,14.67
2023-03-16T10:22:42.218Z,14.67
2023-03-16T10:23:44.126Z,14.68
2023-03-16T10:24:45.937Z,14.68
2023-03-16T10:25:47.779Z,14.69
2023-03-16T10:26:49.920Z,14.70
2023-03-16T10:27:51.776Z,14.71
2023-03-16T10:28:53.691Z,14.72
2023-03-16T10:29:55.543Z,14.71
2023-03-16T10:30:57.452Z,14.72
2023-03-16T10:31:59.345Z,14.73
2023-03-16T10:33:01.286Z,14.73
2023-03-16T10:34:03.093Z,14.73
2023-03-16T10:35:05.192Z,14.73
2023-03-16T10:36:07.362Z,14.73
2023-03-16T10:37:09.354Z,14.74
2023-03-16T10:38:12.467Z,14.75
2023-03-16T10:39:15.313Z,14.74
2023-03-16T10:40:17.110Z,14.75
2023-03-16T10:41:18.926Z,14.74
2023-03-16T10:42:20.739Z,14.75
2023-03-16T10:43:22.568Z,14.76
2023-03-16T10:44:24.474Z,14.76
2023-03-16T10:45:26.390Z,14.77
2023-03-16T10:46:28.579Z,14.77
2023-03-16T10:47:30.513Z,14.76
2023-03-16T10:48:34.015Z,14.77
2023-03-16T10:49:36.141Z,14.77
2023-03-16T10:50:38.085Z,14.78
2023-03-16T10:51:39.896Z,14.77
2023-03-16T10:52:41.907Z,14.77
2023-03-16T10:53:43.655Z,14.77
2023-03-16T10:54:45.694Z,14.78
2023-03-16T10:55:47.650Z,14.78
2023-03-16T10:56:49.746Z,14.79
2023-03-16T10:57:51.576Z,14.79
2023-03-16T10:58:53.363Z,14.80
2023-03-16T10:59:55.474Z,14.80
2023-03-16T11:00:57.377Z,14.79
2023-03-16T11:01:59.258Z,14.80
2023-03-16T11:03:01.083Z,14.80
2023-03-16T11:04:02.895Z,14.81
2023-03-16T11:05:04.739Z,14.80
2023-03-16T11:06:07.160Z,14.81
2023-03-16T11:07:08.971Z,14.80
2023-03-16T11:08:10.842Z,14.80
2023-03-16T11:09:12.692Z,14.80
2023-03-16T11:10:14.643Z,14.78
2023-03-16T11:11:16.452Z,14.79
2023-03-16T11:12:18.474Z,14.80
2023-03-16T11:13:20.463Z,14.80
2023-03-16T11:14:22.312Z,14.80
2023-03-16T11:15:26.128Z,14.80
2023-03-16T11:16:27.908Z,14.81
2023-03-16T11:17:29.701Z,14.80
2023-03-16T11:18:31.506Z,14.82
2023-03-16T11:19:33.316Z,14.83
2023-03-16T11:20:35.186Z,14.84
2023-03-16T11:21:37.059Z,14.85
2023-03-16T11:22:38.854Z,14.85
2023-03-16T11:23:40.657Z,14.86
2023-03-16T11:24:42.456Z,14.86
2023-03-16T11:25:44.348Z,14.85
2023-03-16T11:26:46.464Z,14.86
2023-03-16T11:27:48.993Z,14.87
2023-03-16T11:28:50.800Z,14.87
2023-03-16T11:29:52.629Z,14.87
2023-03-16T11:30:54.682Z,14.88
2023-03-16T11:31:56.484Z,14.88
2023-03-16T11:32:58.460Z,14.89
2023-03-16T11:34:00.261Z,14.91
2023-03-16T11:35:02.073Z,14.92
2023-03-16T11:36:03.966Z,14.92
2023-03-16T11:37:05.864Z,14.92
2023-03-16T11:38:07.738Z,14.94
2023-03-16T11:39:09.577Z,14.94
2023-03-16T11:40:11.521Z,14.94
2023-03-16T11:41:13.363Z,14.95
2023-03-16T11:42:15.189Z,14.94
2023-03-16T11:43:17.044Z,14.94
2023-03-16T11:44:18.839Z,14.94
2023-03-16T11:45:20.758Z,14.94
2023-03-16T11:46:22.755Z,14.94
2023-03-16T11:47:24.580Z,14.96
2023-03-16T11:48:26.608Z,14.95
2023-03-16T11:49:28.410Z,14.95
2023-03-16T11:50:30.226Z,14.94
2023-03-16T11:51:32.057Z,14.94
2023-03-16T11:52:34.056Z,14.94
2023-03-16T11:53:35.870Z,14.95
2023-03-16T11:54:37.680Z,14.94
2023-03-16T11:55:39.636Z,14.94
2023-03-16T11:56:41.740Z,14.94
2023-03-16T11:57:43.711Z,14.95
2023-03-16T11:58:45.697Z,14.95
2023-03-16T11:59:55.306Z,14.94
2023-03-16T12:00:51.516Z,14.95
2023-03-16T12:02:00.179Z,14.95
2023-03-16T12:02:57.248Z,14.95
2023-03-16T12:03:59.355Z,14.96
2023-03-16T12:05:01.383Z,14.95
2023-03-16T12:06:13.579Z,14.96
2023-03-16T12:07:07.107Z,14.96
2023-03-16T12:08:09.024Z,14.96
2023-03-16T12:09:10.843Z,14.96
2023-03-16T12:10:12.776Z,14.97
2023-03-16T12:11:14.590Z,14.95
2023-03-16T12:12:16.466Z,14.97
2023-03-16T12:13:18.256Z,14.97
2023-03-16T12:14:20.140Z,14.97
2023-03-16T12:15:22.017Z,14.99
2023-03-16T12:16:23.972Z,14.98
2023-03-16T12:17:25.878Z,14.98
2023-03-16T12:18:27.710Z,14.99
2023-03-16T12:19:29.522Z,14.99
2023-03-16T12:20:31.323Z,15.00
2023-03-16T12:21:33.137Z,14.99
2023-03-16T12:22:35.013Z,15.00
2023-03-16T12:23:36.836Z,15.00
2023-03-16T12:24:38.641Z,15.01
2023-03-16T12:25:40.513Z,15.01
2023-03-16T12:26:42.545Z,15.01
2023-03-16T12:27:44.390Z,15.01
2023-03-16T12:28:46.352Z,15.02
2023-03-16T12:29:48.224Z,15.00
2023-03-16T12:30:50.435Z,15.03
2023-03-16T12:31:52.237Z,15.05
2023-03-16T12:32:54.224Z,15.04
2023-03-16T12:33:56.546Z,15.04
2023-03-16T12:34:58.865Z,15.05
2023-03-16T12:36:00.685Z,15.05
2023-03-16T12:37:02.454Z,15.05
2023-03-16T12:38:04.306Z,15.06
2023-03-16T12:39:06.140Z,15.06
2023-03-16T12:40:08.298Z,15.08
2023-03-16T12:41:10.114Z,15.06
2023-03-16T12:42:11.938Z,15.07
2023-03-16T12:43:13.784Z,15.06
2023-03-16T12:44:15.598Z,15.08
2023-03-16T12:45:17.393Z,15.08
2023-03-16T12:46:19.385Z,15.09
2023-03-16T12:47:21.271Z,15.08
2023-03-16T12:48:23.127Z,15.10
2023-03-16T12:49:24.945Z,15.11
2023-03-16T12:50:26.808Z,15.13
2023-03-16T12:51:28.637Z,15.15
2023-03-16T12:52:30.423Z,15.15
2023-03-16T12:53:32.272Z,15.15
2023-03-16T12:54:34.206Z,15.16
2023-03-16T12:55:36.088Z,15.16
2023-03-16T12:56:37.912Z,15.16
2023-03-16T12:57:39.808Z,15.18
2023-03-16T12:58:41.720Z,15.17
2023-03-16T12:59:43.672Z,15.18
2023-03-16T13:00:45.805Z,15.19
2023-03-16T13:01:47.664Z,15.20
2023-03-16T13:02:49.561Z,15.20
2023-03-16T13:03:51.468Z,15.22
2023-03-16T13:04:53.320Z,15.22
2023-03-16T13:05:55.182Z,15.22
2023-03-16T13:06:57.017Z,15.24
2023-03-16T13:07:58.907Z,15.23
2023-03-16T13:09:01.609Z,15.24
2023-03-16T13:10:03.780Z,15.24
2023-03-16T13:11:05.611Z,15.25
2023-03-16T13:12:07.411Z,15.24
2023-03-16T13:13:09.248Z,15.26
2023-03-16T13:14:11.091Z,15.26
2023-03-16T13:15:12.891Z,15.26
2023-03-16T13:16:14.864Z,15.26
2023-03-16T13:17:16.720Z,15.26